Time;durP1;ratioP1;P1;durP2;ratioP2;P2;SDS_P1;SDS_P2;PMS_P1;PMS_P2;Temp;Humidity;BMP_temperature;BMP_pressure;BME280_temperature;BME280_humidity;BME280_pressure;Samples;Min_cycle;Max_cycle;Signal;HPM_P1;HPM_P2
2022/07/17 00:00:45;;;;;;;8.50;2.10;;;12.60;99.90;;;;;;5092427;28;20059;-84
2022/07/17 00:03:15;;;;;;;7.38;1.90;;;12.60;99.90;;;;;;5092266;28;20111;-84
2022/07/17 00:05:42;;;;;;;10.02;1.65;;;12.60;99.90;;;;;;5075093;28;20036;-84
2022/07/17 00:08:09;;;;;;;5.45;1.30;;;12.50;99.90;;;;;;5092404;28;20040;-84
2022/07/17 00:10:35;;;;;;;5.72;1.38;;;12.40;99.90;;;;;;5074948;28;20064;-84
2022/07/17 00:13:01;;;;;;;8.07;1.67;;;12.40;99.90;;;;;;5075194;28;20040;-84
2022/07/17 00:15:27;;;;;;;8.30;1.77;;;12.30;99.90;;;;;;5074122;28;20039;-84
2022/07/17 00:17:53;;;;;;;6.78;1.63;;;12.30;99.90;;;;;;5092139;28;20040;-84
2022/07/17 00:20:19;;;;;;;5.80;2.05;;;12.30;99.90;;;;;;5091955;28;20036;-84
2022/07/17 00:22:46;;;;;;;5.68;2.13;;;12.30;99.90;;;;;;5092039;28;20408;-84
2022/07/17 00:25:12;;;;;;;7.63;2.65;;;12.30;99.90;;;;;;5092245;28;20051;-84
2022/07/17 00:27:39;;;;;;;7.03;2.20;;;12.20;99.90;;;;;;5091602;28;20044;-84
2022/07/17 00:30:05;;;;;;;5.82;1.50;;;12.10;99.90;;;;;;5074788;28;20043;-84
2022/07/17 00:32:30;;;;;;;7.50;2.28;;;12.10;99.90;;;;;;5091906;28;20040;-84
2022/07/17 00:34:57;;;;;;;5.95;2.05;;;12.20;99.90;;;;;;5091514;28;20097;-84
2022/07/17 00:37:22;;;;;;;7.13;2.10;;;12.20;99.90;;;;;;5092494;28;20040;-83
2022/07/17 00:39:48;;;;;;;8.43;2.70;;;12.20;99.90;;;;;;5074343;28;20553;-84
2022/07/17 00:42:15;;;;;;;6.38;1.83;;;12.20;99.90;;;;;;5075019;28;20036;-83
2022/07/17 00:44:42;;;;;;;8.68;2.25;;;12.00;99.90;;;;;;5091772;28;20047;-84
2022/07/17 00:47:19;;;;;;;8.80;2.92;;;12.00;99.90;;;;;;5090443;28;20051;-84
2022/07/17 00:49:47;;;;;;;9.25;2.30;;;12.10;99.90;;;;;;5091323;28;20044;-83
2022/07/17 00:52:14;;;;;;;6.30;1.75;;;12.00;99.90;;;;;;5090844;28;20451;-83
2022/07/17 00:54:42;;;;;;;8.25;2.38;;;12.00;99.90;;;;;;5091635;28;20080;-83
2022/07/17 00:57:11;;;;;;;6.30;2.00;;;11.90;99.90;;;;;;5091237;28;20032;-83
2022/07/17 00:59:37;;;;;;;8.35;3.20;;;11.80;99.90;;;;;;5090101;28;20032;-83
2022/07/17 01:02:11;;;;;;;3.13;1.27;;;11.80;99.90;;;;;;5074918;28;20101;-82
2022/07/17 01:04:37;;;;;;;15.75;1.70;;;11.80;99.90;;;;;;5074632;28;20078;-83
2022/07/17 01:07:05;;;;;;;1.08;0.73;;;11.80;99.90;;;;;;5090763;28;20075;-83
2022/07/17 01:09:31;;;;;;;4.70;0.90;;;11.70;99.90;;;;;;5090619;28;20554;-82
2022/07/17 01:11:57;;;;;;;2.17;0.90;;;11.60;99.90;;;;;;5090896;28;20094;-83
2022/07/17 01:14:24;;;;;;;2.90;1.00;;;11.60;99.90;;;;;;5090723;28;20036;-83
2022/07/17 01:16:51;;;;;;;4.82;1.33;;;11.60;99.90;;;;;;5073479;28;20044;-83
2022/07/17 01:19:17;;;;;;;9.13;1.73;;;11.50;99.90;;;;;;5091005;28;20472;-83
2022/07/17 01:21:44;;;;;;;6.05;1.95;;;11.50;99.90;;;;;;5090632;28;20557;-83
2022/07/17 01:24:11;;;;;;;4.45;1.60;;;11.50;99.90;;;;;;5073389;28;20047;-82
2022/07/17 01:26:36;;;;;;;5.85;2.15;;;11.50;99.90;;;;;;5074109;28;20040;-83
2022/07/17 01:29:03;;;;;;;6.07;1.90;;;11.60;99.90;;;;;;5089263;28;20052;-83
2022/07/17 01:31:28;;;;;;;16.40;1.67;;;11.50;99.90;;;;;;5090339;28;20085;-83
2022/07/17 01:33:55;;;;;;;49.88;4.40;;;11.50;99.90;;;;;;5090314;28;20039;-83
2022/07/17 01:36:23;;;;;;;9.45;1.42;;;11.40;99.90;;;;;;5073029;28;20052;-83
2022/07/17 01:38:48;;;;;;;32.05;2.35;;;11.30;99.90;;;;;;5073737;28;20072;-83
2022/07/17 01:41:14;;;;;;;0.60;0.60;;;11.20;99.90;;;;;;5089540;28;20071;-83
2022/07/17 01:43:40;;;;;;;4.43;1.00;;;11.20;99.90;;;;;;5090498;28;20108;-83
2022/07/17 01:46:05;;;;;;;3.90;0.98;;;11.10;99.90;;;;;;5074039;28;20044;-83
2022/07/17 01:48:31;;;;;;;5.18;0.93;;;11.10;99.90;;;;;;5072221;28;20505;-82
2022/07/17 01:50:56;;;;;;;6.40;1.42;;;11.00;99.90;;;;;;5090230;28;20036;-83
2022/07/17 01:53:22;;;;;;;3.33;1.25;;;11.00;99.90;;;;;;5089871;28;20040;-83
2022/07/17 01:55:48;;;;;;;3.58;1.15;;;11.00;99.90;;;;;;5090324;28;20119;-83
2022/07/17 01:58:14;;;;;;;5.35;1.27;;;11.00;99.90;;;;;;5090467;28;20093;-84
2022/07/17 02:00:40;;;;;;;3.28;0.98;;;11.00;99.90;;;;;;5089923;28;20443;-83
2022/07/17 02:03:05;;;;;;;2.55;0.98;;;10.90;99.90;;;;;;5090262;28;20460;-83
2022/07/17 02:05:31;;;;;;;4.72;1.38;;;10.90;99.90;;;;;;5089620;28;20032;-83
2022/07/17 02:07:57;;;;;;;5.75;1.90;;;10.90;99.90;;;;;;5072504;28;20427;-83
2022/07/17 02:10:23;;;;;;;5.05;1.80;;;10.90;99.90;;;;;;5088846;28;20086;-83
2022/07/17 02:12:48;;;;;;;7.10;2.25;;;10.90;99.90;;;;;;5089714;28;20405;-83
2022/07/17 02:15:14;;;;;;;4.38;1.60;;;10.90;99.90;;;;;;5072450;28;20038;-83
2022/07/17 02:17:41;;;;;;;5.25;1.25;;;10.90;99.90;;;;;;5089456;28;20078;-83
2022/07/17 02:20:08;;;;;;;6.18;1.42;;;10.90;99.90;;;;;;5072274;28;20151;-83
2022/07/17 02:22:33;;;;;;;17.77;2.50;;;10.90;99.90;;;;;;5090103;28;20067;-83
2022/07/17 02:24:59;;;;;;;5.47;1.75;;;10.90;99.90;;;;;;5089325;28;20058;-83
2022/07/17 02:27:25;;;;;;;5.90;1.85;;;10.80;99.90;;;;;;5073056;28;20570;-82
2022/07/17 02:29:50;;;;;;;4.80;1.65;;;10.80;99.90;;;;;;5088903;28;20043;-83
2022/07/17 02:32:16;;;;;;;4.55;1.60;;;10.70;99.90;;;;;;5089902;28;20040;-82
2022/07/17 02:34:41;;;;;;;4.47;1.85;;;10.70;99.90;;;;;;5072341;28;20081;-82
2022/07/17 02:37:07;;;;;;;5.43;1.48;;;10.70;99.90;;;;;;5089684;28;20043;-82
2022/07/17 02:39:33;;;;;;;6.28;2.10;;;10.70;99.90;;;;;;5089860;28;20044;-82
2022/07/17 02:41:58;;;;;;;5.45;1.50;;;10.80;99.90;;;;;;5088690;28;20489;-82
2022/07/17 02:44:24;;;;;;;8.27;1.83;;;10.80;99.90;;;;;;5089788;28;20039;-83
2022/07/17 02:46:49;;;;;;;5.72;2.08;;;10.70;99.90;;;;;;5089337;28;20501;-83
2022/07/17 02:49:15;;;;;;;5.53;2.35;;;10.70;99.90;;;;;;5087852;28;20101;-83
2022/07/17 02:51:40;;;;;;;5.55;2.20;;;10.70;99.90;;;;;;5089532;28;20044;-83
2022/07/17 02:54:06;;;;;;;6.78;2.83;;;10.70;99.90;;;;;;5088572;28;20042;-83
2022/07/17 02:56:32;;;;;;;6.05;2.28;;;10.70;99.90;;;;;;5088944;28;20051;-83
2022/07/17 02:58:57;;;;;;;6.88;2.22;;;10.70;99.90;;;;;;5089425;28;20044;-82
2022/07/17 03:01:23;;;;;;;6.93;2.40;;;10.70;99.90;;;;;;5088465;28;20090;-83
2022/07/17 03:03:48;;;;;;;7.53;2.65;;;10.70;99.90;;;;;;5088690;28;20040;-83
2022/07/17 03:06:14;;;;;;;7.28;2.75;;;10.70;99.90;;;;;;5088269;28;20517;-83
2022/07/17 03:08:40;;;;;;;7.85;2.47;;;10.70;99.90;;;;;;5071615;28;20036;-83
2022/07/17 03:11:05;;;;;;;8.13;2.38;;;10.70;99.90;;;;;;5071547;28;20433;-83
2022/07/17 03:13:31;;;;;;;7.25;2.38;;;10.60;99.90;;;;;;5087926;28;20448;-82
2022/07/17 03:15:56;;;;;;;7.65;2.92;;;10.70;99.90;;;;;;5089412;28;20134;-82
2022/07/17 03:18:22;;;;;;;7.82;2.50;;;10.70;99.90;;;;;;5071166;28;20646;-83
2022/07/17 03:20:48;;;;;;;9.25;2.63;;;10.60;99.90;;;;;;5073283;28;20485;-82
2022/07/17 03:23:13;;;;;;;7.15;2.60;;;10.60;99.90;;;;;;5093381;28;20040;-82
2022/07/17 03:25:39;;;;;;;8.80;2.78;;;10.60;99.90;;;;;;5093025;28;20044;-82
2022/07/17 03:28:04;;;;;;;10.07;3.15;;;10.60;99.90;;;;;;5093278;28;20044;-82
2022/07/17 03:30:30;;;;;;;8.50;2.55;;;10.60;99.90;;;;;;5075872;28;20150;-82
2022/07/17 03:32:56;;;;;;;6.88;2.40;;;10.60;99.90;;;;;;5075544;28;20512;-82
2022/07/17 03:35:21;;;;;;;5.50;1.90;;;10.60;99.90;;;;;;5092998;28;20173;-82
2022/07/17 03:37:47;;;;;;;6.38;2.10;;;10.50;99.90;;;;;;5092243;28;20055;-82
2022/07/17 03:40:12;;;;;;;4.13;1.45;;;10.50;99.90;;;;;;5092596;28;20032;-82
2022/07/17 03:42:38;;;;;;;2.70;1.35;;;10.40;99.90;;;;;;5093150;28;20542;-82
2022/07/17 03:45:05;;;;;;;5.35;1.73;;;10.30;99.90;;;;;;5092319;28;20098;-83
2022/07/17 03:47:30;;;;;;;4.30;1.40;;;10.30;99.90;;;;;;5075824;28;20165;-83
2022/07/17 03:49:56;;;;;;;3.40;1.23;;;10.30;99.90;;;;;;5092144;28;20127;-82
2022/07/17 03:52:21;;;;;;;3.05;1.10;;;10.20;99.90;;;;;;5092477;28;20051;-82
2022/07/17 03:54:47;;;;;;;5.55;1.10;;;10.20;99.90;;;;;;5092851;28;20055;-83
2022/07/17 03:57:12;;;;;;;3.88;1.33;;;10.20;99.90;;;;;;5075059;28;20047;-82
2022/07/17 03:59:38;;;;;;;4.78;1.25;;;10.10;99.90;;;;;;5092596;28;20044;-83
2022/07/17 04:02:04;;;;;;;4.95;0.80;;;10.10;99.90;;;;;;5092407;28;20032;-83
2022/07/17 04:04:29;;;;;;;1.95;0.50;;;10.00;99.90;;;;;;5092614;28;20036;-82
2022/07/17 04:06:55;;;;;;;0.50;0.50;;;10.00;99.90;;;;;;5075475;28;20036;-83
2022/07/17 04:09:20;;;;;;;1.13;0.63;;;9.90;99.90;;;;;;5091356;28;20109;-82
2022/07/17 04:11:46;;;;;;;2.63;0.50;;;10.00;99.90;;;;;;5075585;28;20036;-82
2022/07/17 04:14:11;;;;;;;1.65;0.77;;;9.90;99.90;;;;;;5091826;28;20032;-82
2022/07/17 04:16:37;;;;;;;3.20;0.90;;;9.90;99.90;;;;;;5091987;28;20421;-82
2022/07/17 04:19:03;;;;;;;2.20;1.05;;;9.90;99.90;;;;;;5092186;28;20046;-82
2022/07/17 04:21:28;;;;;;;3.13;0.80;;;10.00;99.90;;;;;;5074723;28;20043;-82
2022/07/17 04:23:54;;;;;;;2.08;1.00;;;10.00;99.90;;;;;;5075654;28;20138;-83
2022/07/17 04:26:19;;;;;;;2.97;0.80;;;10.00;99.90;;;;;;5091945;28;20491;-83
2022/07/17 04:28:46;;;;;;;2.65;0.80;;;10.00;99.90;;;;;;5091859;28;20040;-83
2022/07/17 04:31:11;;;;;;;1.83;0.85;;;10.00;99.90;;;;;;5074960;28;20398;-83
2022/07/17 04:33:37;;;;;;;2.58;1.05;;;10.10;99.90;;;;;;5090037;28;20047;-83
2022/07/17 04:36:03;;;;;;;2.63;0.75;;;10.10;99.90;;;;;;5091893;28;20082;-83
2022/07/17 04:38:29;;;;;;;1.98;0.70;;;10.10;99.90;;;;;;5075121;28;20043;-83
2022/07/17 04:40:54;;;;;;;1.42;0.70;;;10.20;99.90;;;;;;5091677;28;20028;-83
2022/07/17 04:43:20;;;;;;;3.15;0.93;;;10.20;99.90;;;;;;5091898;28;20068;-82
2022/07/17 04:45:46;;;;;;;4.00;1.10;;;10.20;99.90;;;;;;5091370;28;20046;-83
2022/07/17 04:48:11;;;;;;;4.80;1.50;;;10.30;99.90;;;;;;5074681;28;20400;-82
2022/07/17 04:50:37;;;;;;;5.47;1.60;;;10.30;99.90;;;;;;5090492;28;20043;-82
2022/07/17 04:53:02;;;;;;;4.00;1.48;;;10.30;99.90;;;;;;5074697;28;20040;-82
2022/07/17 04:55:28;;;;;;;3.78;1.88;;;10.30;99.90;;;;;;5091331;28;20516;-82
2022/07/17 04:57:54;;;;;;;6.00;2.20;;;10.40;99.90;;;;;;5091118;28;20460;-83
2022/07/17 05:00:20;;;;;;;7.47;2.60;;;10.40;99.90;;;;;;5091296;28;20078;-83
2022/07/17 05:02:45;;;;;;;5.60;2.22;;;10.50;99.90;;;;;;5090826;28;20028;-83
2022/07/17 05:05:11;;;;;;;6.72;2.35;;;10.50;99.90;;;;;;5090915;28;20048;-83
2022/07/17 05:07:37;;;;;;;8.68;2.47;;;10.60;99.90;;;;;;5073783;28;20040;-83
2022/07/17 05:10:04;;;;;;;6.05;2.00;;;10.60;99.90;;;;;;5090023;28;20058;-83
2022/07/17 05:12:29;;;;;;;7.05;2.40;;;10.70;99.90;;;;;;5090955;28;20040;-83
2022/07/17 05:14:55;;;;;;;5.68;2.25;;;10.70;99.90;;;;;;5073901;28;20043;-83
2022/07/17 05:17:21;;;;;;;9.18;2.88;;;10.70;99.90;;;;;;5073482;28;20588;-83
2022/07/17 05:19:46;;;;;;;8.55;3.40;;;10.80;99.90;;;;;;5074164;28;20036;-82
2022/07/17 05:22:12;;;;;;;8.13;3.25;;;10.90;99.90;;;;;;5090199;28;20036;-83
2022/07/17 05:24:38;;;;;;;9.45;3.25;;;11.00;99.90;;;;;;5090975;28;20071;-83
2022/07/17 05:27:03;;;;;;;8.60;3.22;;;11.10;99.90;;;;;;5090713;28;20039;-83
2022/07/17 05:29:29;;;;;;;8.55;3.53;;;11.20;99.90;;;;;;5090289;28;20071;-83
2022/07/17 05:31:54;;;;;;;10.93;3.63;;;11.20;99.90;;;;;;5073778;28;20040;-83
2022/07/17 05:34:20;;;;;;;7.72;3.65;;;11.30;99.90;;;;;;5072659;28;20036;-83
2022/07/17 05:36:46;;;;;;;9.50;4.13;;;11.40;99.90;;;;;;5090530;28;20505;-83
2022/07/17 05:39:11;;;;;;;11.23;4.22;;;11.50;99.90;;;;;;5090383;28;20548;-83
2022/07/17 05:41:37;;;;;;;9.82;4.13;;;11.60;99.90;;;;;;5090801;28;20046;-83
2022/07/17 05:44:03;;;;;;;9.10;4.47;;;11.70;99.90;;;;;;5089637;28;20507;-83
2022/07/17 05:46:28;;;;;;;9.02;3.63;;;11.80;99.90;;;;;;5088279;28;20043;-83
2022/07/17 05:48:54;;;;;;;8.50;3.72;;;11.90;99.90;;;;;;5089845;28;20098;-82
2022/07/17 05:51:20;;;;;;;12.63;4.45;;;11.90;99.90;;;;;;5090335;28;20040;-82
2022/07/17 05:53:45;;;;;;;8.35;3.80;;;12.00;99.90;;;;;;5091298;28;20532;-82
2022/07/17 05:56:11;;;;;;;10.20;3.67;;;12.10;99.90;;;;;;5089784;28;20562;-83
2022/07/17 05:58:36;;;;;;;11.82;4.53;;;12.20;99.90;;;;;;5071875;28;20064;-82
2022/07/17 06:01:02;;;;;;;11.45;4.00;;;12.20;99.90;;;;;;5082592;28;20603;-82
2022/07/17 06:03:29;;;;;;;11.60;4.38;;;12.30;99.90;;;;;;5082213;28;20051;-82
2022/07/17 06:05:54;;;;;;;12.32;3.90;;;12.40;99.90;;;;;;5088452;28;20043;-82
2022/07/17 06:08:20;;;;;;;12.80;3.60;;;12.50;99.90;;;;;;5073060;28;20581;-82
2022/07/17 06:10:45;;;;;;;11.57;3.22;;;12.60;99.90;;;;;;5072781;28;20043;-82
2022/07/17 06:13:11;;;;;;;10.18;3.63;;;12.60;99.90;;;;;;5089782;28;20030;-82
2022/07/17 06:15:36;;;;;;;13.45;4.13;;;12.60;99.90;;;;;;5071662;28;20078;-82
2022/07/17 06:18:03;;;;;;;9.02;4.10;;;12.80;99.90;;;;;;5073075;28;20040;-83
2022/07/17 06:20:29;;;;;;;14.35;5.03;;;12.80;99.90;;;;;;5089095;28;20527;-83
2022/07/17 06:22:55;;;;;;;10.00;3.60;;;12.90;99.90;;;;;;5072995;28;20043;-83
2022/07/17 06:25:20;;;;;;;9.77;3.83;;;13.00;99.90;;;;;;5089655;28;20048;-83
2022/07/17 06:27:46;;;;;;;11.07;4.35;;;13.00;99.90;;;;;;5089485;28;20047;-83
2022/07/17 06:30:14;;;;;;;9.63;3.50;;;13.10;99.90;;;;;;5072327;28;20044;-83
2022/07/17 06:32:41;;;;;;;9.32;3.10;;;13.20;99.90;;;;;;5088198;28;20036;-84
2022/07/17 06:35:08;;;;;;;11.20;3.85;;;13.20;99.90;;;;;;5088694;28;20079;-84
2022/07/17 06:37:34;;;;;;;13.30;3.40;;;13.30;99.90;;;;;;5088766;28;20386;-84
2022/07/17 06:40:01;;;;;;;10.13;4.25;;;13.40;99.90;;;;;;5072143;28;20081;-83
2022/07/17 06:42:26;;;;;;;10.45;4.05;;;13.50;99.90;;;;;;5088865;28;20547;-84
2022/07/17 06:44:52;;;;;;;7.68;3.15;;;13.60;99.90;;;;;;5071328;28;20036;-84
2022/07/17 06:47:17;;;;;;;10.75;3.05;;;13.70;99.90;;;;;;5072992;28;20127;-84
2022/07/17 06:49:43;;;;;;;10.32;3.03;;;13.80;99.90;;;;;;5071248;28;20528;-84
2022/07/17 06:52:09;;;;;;;11.35;3.70;;;13.90;99.90;;;;;;5089087;28;20044;-84
2022/07/17 06:54:34;;;;;;;12.52;3.47;;;14.00;99.90;;;;;;5088851;28;20501;-84
2022/07/17 06:57:01;;;;;;;9.73;2.67;;;14.10;99.90;;;;;;5071492;28;20051;-84
2022/07/17 06:59:26;;;;;;;8.48;2.63;;;14.20;99.90;;;;;;5072526;28;20040;-84
2022/07/17 07:01:52;;;;;;;9.57;2.40;;;14.20;99.90;;;;;;5072416;28;20040;-84
2022/07/17 07:04:17;;;;;;;7.88;2.67;;;14.30;99.90;;;;;;5089417;28;20048;-84
2022/07/17 07:06:43;;;;;;;12.15;2.53;;;14.40;99.90;;;;;;5089707;28;20040;-84
2022/07/17 07:09:11;;;;;;;13.25;3.33;;;14.50;99.90;;;;;;5071397;28;20039;-84
2022/07/17 07:11:37;;;;;;;12.02;2.85;;;14.60;99.90;;;;;;5089190;28;20676;-84
2022/07/17 07:14:03;;;;;;;9.82;2.60;;;14.70;99.90;;;;;;5087795;28;20051;-84
2022/07/17 07:16:28;;;;;;;8.80;2.20;;;14.80;99.90;;;;;;5088662;28;20036;-85
2022/07/17 07:18:54;;;;;;;6.80;2.30;;;14.90;99.90;;;;;;5089476;28;20047;-84
2022/07/17 07:21:20;;;;;;;8.18;2.03;;;15.00;99.90;;;;;;5088279;28;20040;-84
2022/07/17 07:23:45;;;;;;;9.18;2.20;;;15.10;99.90;;;;;;5089107;28;20060;-84
2022/07/17 07:26:11;;;;;;;7.80;1.95;;;15.20;99.90;;;;;;5088200;28;20412;-84
2022/07/17 07:28:37;;;;;;;10.55;2.30;;;15.20;99.90;;;;;;5072452;28;20134;-84
2022/07/17 07:31:03;;;;;;;10.80;2.10;;;15.30;99.90;;;;;;5088245;28;20051;-85
2022/07/17 07:33:29;;;;;;;6.72;1.73;;;15.50;99.90;;;;;;5072393;28;20045;-85
2022/07/17 07:35:55;;;;;;;10.77;1.50;;;15.50;99.90;;;;;;5088813;28;20398;-85
2022/07/17 07:38:21;;;;;;;8.07;1.67;;;15.60;99.90;;;;;;5088375;28;20542;-85
2022/07/17 07:40:46;;;;;;;7.97;1.70;;;15.60;99.90;;;;;;5070048;28;20068;-85
2022/07/17 07:43:12;;;;;;;9.45;1.60;;;15.80;99.90;;;;;;5086848;28;20083;-85
2022/07/17 07:45:38;;;;;;;8.95;1.60;;;15.80;99.90;;;;;;5070395;28;20047;-85
2022/07/17 07:48:04;;;;;;;9.45;1.48;;;15.90;99.90;;;;;;5087547;28;20048;-85
2022/07/17 07:50:29;;;;;;;6.80;1.52;;;16.00;99.90;;;;;;5069142;28;20040;-85
2022/07/17 07:52:55;;;;;;;9.95;2.05;;;16.10;99.90;;;;;;5086999;28;20046;-85
2022/07/17 07:55:21;;;;;;;8.73;1.85;;;16.20;99.90;;;;;;5087263;28;20071;-85
2022/07/17 07:57:48;;;;;;;8.00;2.00;;;16.20;99.90;;;;;;5088295;28;20578;-85
2022/07/17 08:00:14;;;;;;;8.75;1.92;;;16.30;99.90;;;;;;5072026;28;20035;-85
2022/07/17 08:02:39;;;;;;;9.32;1.90;;;16.40;99.90;;;;;;5071586;28;20036;-85
2022/07/17 08:05:05;;;;;;;8.68;1.65;;;16.40;99.90;;;;;;5089011;28;20678;-85
2022/07/17 08:07:31;;;;;;;7.60;1.67;;;16.50;99.90;;;;;;5071713;28;20028;-85
2022/07/17 08:09:58;;;;;;;12.18;1.83;;;16.50;99.90;;;;;;5075016;28;20040;-85
2022/07/17 08:12:24;;;;;;;8.15;1.55;;;16.50;99.90;;;;;;5091513;28;20059;-85
2022/07/17 08:14:50;;;;;;;7.88;1.25;;;16.60;99.90;;;;;;5085430;28;20041;-84
2022/07/17 08:17:16;;;;;;;7.60;1.60;;;16.70;99.90;;;;;;5057884;28;20101;-84
2022/07/17 08:19:41;;;;;;;7.18;1.48;;;16.80;99.90;;;;;;5091740;28;20120;-84
2022/07/17 08:22:07;;;;;;;9.15;1.50;;;16.80;99.90;;;;;;5092608;28;20114;-84
2022/07/17 08:24:33;;;;;;;9.48;1.80;;;16.90;99.90;;;;;;5073681;28;20032;-84
2022/07/17 08:26:58;;;;;;;9.25;1.55;;;17.00;99.90;;;;;;5064656;28;20079;-85
2022/07/17 08:29:24;;;;;;;9.15;1.42;;;17.00;99.90;;;;;;5086346;28;20408;-85
2022/07/17 08:31:49;;;;;;;6.78;1.48;;;17.10;99.90;;;;;;5102956;28;20126;-85
2022/07/17 08:34:15;;;;;;;9.20;1.60;;;17.10;99.90;;;;;;5091696;28;20101;-85
2022/07/17 08:36:42;;;;;;;8.85;1.70;;;17.10;99.90;;;;;;5091123;28;20046;-85
2022/07/17 08:39:08;;;;;;;11.55;1.77;;;17.20;99.90;;;;;;5075123;28;20127;-85
2022/07/17 08:41:37;;;;;;;9.75;1.85;;;17.30;99.90;;;;;;5074486;28;20150;-85
2022/07/17 08:44:04;;;;;;;7.65;1.80;;;17.40;99.90;;;;;;5070940;28;20116;-85
2022/07/17 08:46:32;;;;;;;7.22;1.48;;;17.40;99.90;;;;;;5081384;28;20040;-85
2022/07/17 08:48:59;;;;;;;7.65;1.77;;;17.50;99.90;;;;;;5064480;28;20119;-85
2022/07/17 08:51:25;;;;;;;6.30;1.40;;;17.60;99.90;;;;;;5071101;28;20051;-85
2022/07/17 08:53:51;;;;;;;11.60;2.00;;;17.70;99.90;;;;;;5062635;28;20093;-85
2022/07/17 08:56:17;;;;;;;8.63;1.70;;;17.70;99.90;;;;;;5063118;28;20501;-84
2022/07/17 08:58:42;;;;;;;9.88;1.95;;;17.80;99.90;;;;;;5059872;28;20497;-85
2022/07/17 09:01:08;;;;;;;7.88;1.50;;;17.80;99.90;;;;;;5073228;28;20044;-85
2022/07/17 09:03:34;;;;;;;7.32;1.45;;;17.90;99.90;;;;;;5091209;28;20054;-85
2022/07/17 09:06:00;;;;;;;8.40;1.70;;;18.10;99.90;;;;;;5073438;28;20089;-85
2022/07/17 09:08:25;;;;;;;8.30;1.50;;;18.10;99.90;;;;;;5074110;28;20500;-85
2022/07/17 09:10:53;;;;;;;8.65;1.73;;;18.20;99.90;;;;;;5073179;28;20511;-84
2022/07/17 09:13:30;;;;;;;8.38;1.77;;;18.20;99.90;;;;;;5090744;28;20044;-85
2022/07/17 09:16:09;;;;;;;6.32;1.60;;;18.30;99.90;;;;;;5090677;28;20046;-85
2022/07/17 09:18:49;;;;;;;8.23;2.20;;;18.40;99.90;;;;;;5090217;28;20032;-85
2022/07/17 09:21:41;;;;;;;6.03;1.30;;;18.50;99.90;;;;;;5074644;28;20032;-84
2022/07/17 09:24:07;;;;;;;6.88;1.52;;;18.60;99.90;;;;;;5068841;28;20473;-84
2022/07/17 09:26:34;;;;;;;10.13;1.77;;;18.70;99.90;;;;;;5074039;28;20051;-85
2022/07/17 09:29:04;;;;;;;8.48;1.67;;;18.70;99.90;;;;;;5090058;28;20088;-84
2022/07/17 09:31:31;;;;;;;6.30;1.30;;;18.80;99.90;;;;;;5091289;28;20043;-85
2022/07/17 09:33:58;;;;;;;6.40;1.60;;;18.90;99.90;;;;;;5090417;28;20077;-85
2022/07/17 09:36:24;;;;;;;9.15;1.83;;;18.90;99.90;;;;;;5089898;28;20551;-85
2022/07/17 09:38:53;;;;;;;8.27;1.80;;;19.00;99.90;;;;;;5091100;28;20044;-86
2022/07/17 09:41:21;;;;;;;8.55;1.80;;;19.00;99.90;;;;;;5091633;28;20042;-85
2022/07/17 09:43:57;;;;;;;12.13;1.52;;;19.00;99.90;;;;;;5090686;28;20040;-85
2022/07/17 09:46:33;;;;;;;6.50;1.70;;;19.00;99.90;;;;;;5090405;28;20132;-85
2022/07/17 09:49:04;;;;;;;7.40;1.77;;;19.10;99.90;;;;;;5089751;28;20044;-85
2022/07/17 09:51:34;;;;;;;8.45;1.65;;;19.20;99.90;;;;;;5089435;28;20036;-85
2022/07/17 09:54:03;;;;;;;6.38;1.20;;;19.20;99.90;;;;;;5072428;28;20035;-85
2022/07/17 09:56:31;;;;;;;8.18;1.48;;;19.30;99.90;;;;;;5072173;28;20044;-85
2022/07/17 09:59:08;;;;;;;6.85;1.50;;;19.40;99.90;;;;;;5089908;28;20117;-84
2022/07/17 10:01:35;;;;;;;8.38;1.65;;;19.40;99.90;;;;;;5082575;28;20393;-84
2022/07/17 10:04:01;;;;;;;7.13;1.40;;;19.40;99.90;;;;;;5073079;28;20118;-84
2022/07/17 10:06:28;;;;;;;6.10;1.50;;;19.50;99.90;;;;;;5072167;28;20098;-84
2022/07/17 10:08:54;;;;;;;6.70;1.70;;;19.60;99.90;;;;;;5083871;28;20074;-85
2022/07/17 10:11:22;;;;;;;6.65;1.42;;;19.70;99.90;;;;;;5071638;28;20611;-85
2022/07/17 10:13:49;;;;;;;6.20;1.50;;;19.70;99.90;;;;;;5072326;28;20047;-85
2022/07/17 10:16:29;;;;;;;7.65;1.20;;;19.80;98.30;;;;;;5089940;28;20505;-85
2022/07/17 10:18:57;;;;;;;9.32;1.90;;;19.90;98.20;;;;;;5089207;28;20050;-84
2022/07/17 10:21:25;;;;;;;7.43;1.80;;;19.90;98.80;;;;;;5089938;28;20047;-85
2022/07/17 10:23:53;;;;;;;5.72;1.30;;;19.90;98.80;;;;;;5089150;28;20119;-85
2022/07/17 10:26:32;;;;;;;8.90;1.77;;;20.00;98.80;;;;;;5089888;28;20417;-85
2022/07/17 10:28:58;;;;;;;7.57;1.75;;;20.00;97.30;;;;;;5072200;28;20052;-86
2022/07/17 10:31:25;;;;;;;7.90;1.20;;;20.00;97.00;;;;;;5071023;28;20044;-86
2022/07/17 10:33:59;;;;;;;5.57;1.38;;;20.10;95.80;;;;;;5089826;28;20040;-86
2022/07/17 10:36:39;;;;;;;5.40;1.27;;;20.20;95.60;;;;;;5072391;28;20051;-85
2022/07/17 10:39:20;;;;;;;6.70;1.50;;;20.30;95.90;;;;;;5072222;28;20111;-85
2022/07/17 10:41:57;;;;;;;5.18;1.50;;;20.50;93.90;;;;;;5090103;28;20058;-85
2022/07/17 10:44:30;;;;;;;5.32;1.30;;;20.50;91.70;;;;;;5088658;28;20024;-85
2022/07/17 10:46:56;;;;;;;5.90;1.70;;;20.60;89.60;;;;;;5089928;28;20048;-85
2022/07/17 10:49:23;;;;;;;7.55;1.50;;;20.70;88.70;;;;;;5089530;28;20081;-85
2022/07/17 10:51:52;;;;;;;6.45;1.30;;;20.80;86.90;;;;;;5088418;28;20050;-85
2022/07/17 10:54:20;;;;;;;7.43;1.73;;;20.80;89.20;;;;;;5072392;28;20047;-85
2022/07/17 10:56:46;;;;;;;5.80;1.27;;;20.90;90.00;;;;;;5088924;28;20046;-86
2022/07/17 10:59:12;;;;;;;9.43;1.50;;;21.00;91.00;;;;;;5088907;28;20126;-85
2022/07/17 11:01:38;;;;;;;6.90;1.42;;;21.00;89.00;;;;;;5072944;28;20039;-85
2022/07/17 11:04:04;;;;;;;7.60;1.63;;;21.00;84.30;;;;;;5072170;28;20036;-86
2022/07/17 11:06:33;;;;;;;7.45;1.80;;;21.00;86.80;;;;;;5089090;28;20051;-85
2022/07/17 11:09:03;;;;;;;6.72;1.58;;;21.10;86.00;;;;;;5089310;28;20039;-85
2022/07/17 11:11:45;;;;;;;6.55;1.40;;;21.20;83.30;;;;;;5071040;28;20405;-85
2022/07/17 11:14:22;;;;;;;5.90;1.40;;;21.30;86.50;;;;;;5071799;28;20051;-85
2022/07/17 11:16:56;;;;;;;7.85;1.67;;;21.40;80.40;;;;;;5088486;28;20638;-85
2022/07/17 11:19:33;;;;;;;7.72;1.60;;;21.40;83.20;;;;;;5071487;28;20036;-85
2022/07/17 11:22:02;;;;;;;5.43;1.42;;;21.50;80.30;;;;;;5072503;28;20043;-85
2022/07/17 11:24:41;;;;;;;5.38;1.40;;;21.60;80.30;;;;;;5088503;28;20029;-85
2022/07/17 11:27:09;;;;;;;5.07;1.20;;;21.70;86.60;;;;;;5072688;28;20051;-86
2022/07/17 11:29:41;;;;;;;6.97;1.50;;;21.80;81.10;;;;;;5088619;28;20405;-85
2022/07/17 11:32:07;;;;;;;5.60;1.42;;;21.80;80.20;;;;;;5088968;28;20036;-85
2022/07/17 11:34:33;;;;;;;7.57;1.42;;;21.90;81.40;;;;;;5088826;28;20036;-85
2022/07/17 11:37:05;;;;;;;6.72;1.30;;;22.00;80.30;;;;;;5071639;28;20062;-85
2022/07/17 11:39:39;;;;;;;6.53;1.35;;;22.10;77.90;;;;;;5088908;28;20505;-85
2022/07/17 11:42:08;;;;;;;6.75;1.60;;;22.20;76.30;;;;;;5089780;28;20137;-85
2022/07/17 11:44:35;;;;;;;5.47;1.30;;;22.20;82.70;;;;;;5071439;28;20119;-86
2022/07/17 11:47:01;;;;;;;6.95;1.65;;;22.30;76.80;;;;;;5068395;28;20081;-85
2022/07/17 11:49:29;;;;;;;6.03;1.33;;;22.30;75.80;;;;;;5099594;28;20028;-86
2022/07/17 11:51:57;;;;;;;5.82;1.65;;;22.40;74.10;;;;;;5099172;28;20064;-86
2022/07/17 11:54:23;;;;;;;8.07;1.65;;;22.40;74.90;;;;;;5083039;28;20032;-85
2022/07/17 11:56:57;;;;;;;6.25;1.52;;;22.50;75.40;;;;;;5079581;28;20646;-86
2022/07/17 11:59:28;;;;;;;6.50;1.50;;;22.60;79.10;;;;;;5086221;28;20269;-86
2022/07/17 12:01:54;;;;;;;6.13;1.80;;;22.70;72.30;;;;;;5092841;28;20493;-86
2022/07/17 12:04:20;;;;;;;7.05;1.58;;;22.70;72.60;;;;;;5074686;28;20123;-86
2022/07/17 12:06:59;;;;;;;5.03;1.50;;;22.70;76.10;;;;;;5074905;28;20123;-86
2022/07/17 12:09:34;;;;;;;9.52;1.60;;;22.80;73.60;;;;;;5074467;28;20131;-86
2022/07/17 12:12:01;;;;;;;7.07;1.40;;;23.00;72.80;;;;;;5091928;28;20039;-85
2022/07/17 12:14:27;;;;;;;7.40;1.80;;;23.10;73.80;;;;;;5092050;28;20336;-85
2022/07/17 12:16:55;;;;;;;6.88;1.60;;;23.20;71.80;;;;;;5091186;28;20122;-85
2022/07/17 12:19:23;;;;;;;5.47;1.50;;;23.20;72.10;;;;;;5075808;28;20040;-86
2022/07/17 12:21:58;;;;;;;9.00;1.60;;;23.30;69.70;;;;;;5075188;28;20047;-86
2022/07/17 12:24:26;;;;;;;6.47;1.50;;;23.30;68.70;;;;;;5075457;28;20032;-86
2022/07/17 12:26:54;;;;;;;7.70;1.67;;;23.40;69.40;;;;;;5091578;28;20055;-86
2022/07/17 12:29:19;;;;;;;8.00;2.30;;;23.50;67.00;;;;;;5074655;28;20405;-86
2022/07/17 12:31:45;;;;;;;10.00;2.10;;;23.60;69.80;;;;;;5074752;28;20040;-86
2022/07/17 12:34:10;;;;;;;5.53;1.60;;;23.70;72.90;;;;;;5091709;28;20040;-86
2022/07/17 12:36:36;;;;;;;33.33;3.70;;;23.70;70.40;;;;;;5073876;28;20119;-86
2022/07/17 12:39:02;;;;;;;5.95;1.73;;;23.80;68.80;;;;;;5090874;28;20043;-86
2022/07/17 12:41:28;;;;;;;7.45;1.75;;;24.00;68.50;;;;;;5091433;28;20036;-86
2022/07/17 12:43:53;;;;;;;5.57;1.60;;;24.10;66.70;;;;;;5090192;28;20401;-86